createdAt,value
2017-10-02T00:01:26.663Z,53.40
2017-10-02T00:03:56.548Z,53.50
2017-10-02T00:06:25.799Z,53.50
2017-10-02T00:08:55.035Z,53.70
2017-10-02T00:11:23.276Z,53.60
2017-10-02T00:13:53.297Z,53.40
2017-10-02T00:16:22.350Z,53.60
2017-10-02T00:18:51.467Z,53.30
2017-10-02T00:21:21.569Z,53.50
2017-10-02T00:23:49.857Z,53.50
2017-10-02T00:26:18.182Z,53.30
2017-10-02T00:28:46.471Z,53.40
2017-10-02T00:31:14.731Z,53.40
2017-10-02T00:33:43.000Z,53.30
2017-10-02T00:36:11.307Z,53.30
2017-10-02T00:38:43.368Z,53.50
2017-10-02T00:41:11.631Z,53.60
2017-10-02T00:43:39.913Z,53.40
2017-10-02T00:46:08.231Z,53.40
2017-10-02T00:48:37.345Z,53.50
2017-10-02T00:51:05.592Z,53.50
2017-10-02T00:53:33.899Z,53.60
2017-10-02T00:56:03.090Z,53.40
2017-10-02T00:58:32.231Z,53.50
2017-10-02T01:01:00.493Z,53.70
2017-10-02T01:03:30.850Z,53.60
2017-10-02T01:05:59.227Z,53.40
2017-10-02T01:08:27.524Z,53.50
2017-10-02T01:10:55.812Z,53.50
2017-10-02T01:13:24.066Z,53.60
2017-10-02T01:15:52.338Z,53.40
2017-10-02T01:18:20.657Z,53.60
2017-10-02T01:20:49.693Z,53.70
2017-10-02T01:23:17.962Z,53.70
2017-10-02T01:25:47.179Z,53.60
2017-10-02T01:28:16.276Z,53.60
2017-10-02T01:30:44.559Z,53.50
2017-10-02T01:33:12.939Z,53.30
2017-10-02T01:35:41.194Z,53.60
2017-10-02T01:38:09.487Z,53.40
2017-10-02T01:40:37.764Z,52.90
2017-10-02T01:43:06.771Z,53.00
2017-10-02T01:45:35.194Z,52.90
2017-10-02T01:48:04.255Z,53.40
2017-10-02T01:50:32.519Z,53.40
2017-10-02T01:53:00.821Z,53.10
2017-10-02T01:55:30.065Z,53.50
2017-10-02T01:57:58.319Z,53.60
2017-10-02T02:00:26.624Z,53.30
2017-10-02T02:02:54.878Z,53.40
2017-10-02T02:05:23.140Z,53.40
2017-10-02T02:07:52.523Z,53.30
2017-10-02T02:10:20.779Z,53.40
2017-10-02T02:12:49.051Z,54.50
2017-10-02T02:15:17.327Z,54.20
2017-10-02T02:17:45.663Z,54.10
2017-10-02T02:20:13.911Z,54.70
2017-10-02T02:22:42.972Z,55.30
2017-10-02T02:25:11.240Z,55.30
2017-10-02T02:27:39.498Z,55.90
2017-10-02T02:30:07.783Z,55.80
2017-10-02T02:32:36.041Z,55.90
2017-10-02T02:35:04.292Z,56.10
2017-10-02T02:37:33.348Z,56.70
2017-10-02T02:40:01.611Z,56.70
2017-10-02T02:42:29.853Z,56.80
2017-10-02T02:44:58.920Z,57.60
2017-10-02T02:47:27.196Z,57.20
2017-10-02T02:49:55.461Z,57.60
2017-10-02T02:52:23.727Z,57.40
2017-10-02T02:54:52.006Z,57.90
2017-10-02T03:00:21.615Z,58.00
2017-10-02T03:02:49.896Z,58.10
2017-10-02T03:05:18.143Z,58.60
2017-10-02T03:07:46.420Z,58.70
2017-10-02T03:10:14.686Z,58.90
2017-10-02T03:12:43.694Z,58.90
2017-10-02T03:15:11.966Z,58.90
2017-10-02T03:17:40.985Z,58.70
2017-10-02T03:20:09.228Z,58.50
2017-10-02T03:22:38.338Z,58.90
2017-10-02T03:25:07.463Z,58.90
2017-10-02T03:27:36.632Z,59.00
2017-10-02T03:30:04.935Z,59.20
2017-10-02T03:32:33.198Z,58.80
2017-10-02T03:35:01.462Z,58.90
2017-10-02T03:37:29.731Z,59.00
2017-10-02T03:39:58.025Z,59.00
2017-10-02T03:42:27.173Z,58.90
2017-10-02T03:44:55.447Z,58.80
2017-10-02T03:47:23.684Z,59.90
2017-10-02T03:49:51.961Z,59.30
2017-10-02T03:52:20.242Z,59.30
2017-10-02T03:54:48.572Z,59.40
2017-10-02T03:57:17.604Z,59.70
2017-10-02T03:59:45.842Z,59.60
2017-10-02T04:02:14.104Z,59.90
2017-10-02T04:04:43.169Z,59.80
2017-10-02T04:07:11.418Z,59.90
2017-10-02T04:09:39.701Z,60.10
2017-10-02T04:12:07.927Z,60.20
2017-10-02T04:14:36.942Z,60.60
2017-10-02T04:17:05.983Z,60.30
2017-10-02T04:19:34.261Z,60.00
2017-10-02T04:22:02.560Z,60.40
2017-10-02T04:24:31.659Z,61.20
2017-10-02T04:27:00.020Z,61.30
2017-10-02T04:29:30.163Z,61.30
2017-10-02T04:31:59.396Z,61.60
2017-10-02T04:34:27.716Z,61.80
2017-10-02T04:36:56.960Z,61.90
2017-10-02T04:39:25.218Z,61.70
2017-10-02T04:41:53.448Z,61.70
2017-10-02T04:44:21.708Z,62.00
2017-10-02T04:46:49.991Z,61.70
2017-10-02T04:49:18.985Z,62.70
2017-10-02T04:51:47.243Z,61.90
2017-10-02T04:54:15.558Z,61.60
2017-10-02T04:56:44.695Z,61.80
2017-10-02T04:59:13.711Z,62.70
2017-10-02T05:01:42.006Z,62.70
2017-10-02T05:04:11.136Z,62.80
2017-10-02T05:06:40.254Z,63.10
2017-10-02T05:09:09.311Z,62.80
2017-10-02T05:11:38.371Z,63.20
2017-10-02T05:14:06.608Z,63.30
2017-10-02T05:16:36.488Z,63.60
2017-10-02T05:19:04.753Z,63.40
2017-10-02T05:21:33.018Z,63.80
2017-10-02T05:24:01.298Z,63.90
2017-10-02T05:26:29.567Z,64.00
2017-10-02T05:28:57.831Z,64.10
2017-10-02T05:31:26.098Z,64.00
2017-10-02T05:33:54.375Z,64.10
2017-10-02T05:36:22.682Z,64.20
2017-10-02T05:38:50.912Z,64.20
2017-10-02T05:41:19.181Z,64.20
2017-10-02T05:43:48.407Z,64.50
2017-10-02T05:46:16.713Z,64.40
2017-10-02T05:48:45.027Z,64.30
2017-10-02T05:51:13.274Z,64.80
2017-10-02T05:53:41.521Z,64.60
2017-10-02T05:56:11.556Z,64.80
2017-10-02T05:58:40.805Z,64.70
2017-10-02T06:01:10.103Z,64.60
2017-10-02T06:03:38.322Z,64.80
2017-10-02T06:06:06.657Z,65.10
2017-10-02T06:08:35.697Z,65.00
2017-10-02T06:11:03.928Z,64.80
2017-10-02T06:13:32.979Z,64.90
2017-10-02T06:16:01.253Z,65.30
2017-10-02T06:18:29.511Z,65.00
2017-10-02T06:20:57.773Z,64.90
2017-10-02T06:23:26.803Z,64.90
2017-10-02T06:25:55.076Z,65.00
2017-10-02T06:28:23.417Z,65.50
2017-10-02T06:30:52.432Z,65.50
2017-10-02T06:33:20.725Z,65.60
2017-10-02T06:35:49.011Z,65.40
2017-10-02T06:38:17.341Z,65.50
2017-10-02T06:40:47.102Z,65.20
2017-10-02T06:43:15.365Z,65.30
2017-10-02T06:45:43.600Z,65.10
2017-10-02T06:48:12.644Z,65.30
2017-10-02T06:50:40.892Z,65.40
2017-10-02T06:53:09.164Z,65.50
2017-10-02T06:55:37.564Z,65.10
2017-10-02T06:58:05.852Z,65.60
2017-10-02T07:00:34.995Z,65.40
2017-10-02T07:03:03.316Z,65.60
2017-10-02T07:05:31.758Z,65.80
2017-10-02T07:08:01.580Z,66.40
2017-10-02T07:10:29.852Z,66.40
2017-10-02T07:12:58.894Z,66.60
2017-10-02T07:15:27.149Z,66.80
2017-10-02T07:17:55.468Z,67.00
2017-10-02T07:20:23.715Z,67.10
2017-10-02T07:22:51.958Z,67.20
2017-10-02T07:25:21.914Z,67.60
2017-10-02T07:27:50.171Z,67.50
2017-10-02T07:30:18.428Z,67.00
2017-10-02T07:32:46.869Z,67.30
2017-10-02T07:35:15.098Z,67.40
2017-10-02T07:37:44.255Z,67.30
2017-10-02T07:40:13.267Z,67.70
2017-10-02T07:42:41.520Z,67.30
2017-10-02T07:45:10.606Z,67.20
2017-10-02T07:47:38.871Z,67.40
2017-10-02T07:50:08.294Z,67.50
2017-10-02T07:52:37.502Z,67.80
2017-10-02T07:55:05.811Z,67.60
2017-10-02T07:57:34.092Z,67.20
2017-10-02T08:00:03.095Z,67.60
2017-10-02T08:02:31.367Z,67.50
2017-10-02T08:04:59.623Z,67.60
2017-10-02T08:07:28.880Z,67.70
2017-10-02T08:09:57.259Z,67.60
2017-10-02T08:12:25.514Z,67.70
2017-10-02T08:14:53.824Z,67.60
2017-10-02T08:17:23.835Z,67.80
2017-10-02T08:19:52.962Z,67.70
2017-10-02T08:22:21.986Z,67.80
2017-10-02T08:24:50.248Z,67.80
2017-10-02T08:27:19.366Z,67.80
2017-10-02T08:29:48.696Z,67.90
2017-10-02T08:32:23.036Z,67.90
2017-10-02T08:34:52.092Z,67.80
2017-10-02T08:37:20.392Z,67.80
2017-10-02T08:39:49.462Z,67.80
2017-10-02T08:42:17.703Z,67.80
2017-10-02T08:44:46.002Z,67.90
2017-10-02T08:47:14.265Z,68.20
2017-10-02T08:49:43.525Z,68.10
2017-10-02T08:52:12.562Z,68.40
2017-10-02T08:54:40.853Z,68.40
2017-10-02T08:57:09.868Z,68.10
2017-10-02T08:59:38.125Z,68.30
2017-10-02T09:02:08.118Z,68.50
2017-10-02T09:04:36.370Z,68.80
2017-10-02T09:07:04.679Z,68.80
2017-10-02T09:09:33.034Z,68.90
2017-10-02T09:12:01.323Z,68.70
2017-10-02T09:14:30.582Z,68.80
2017-10-02T09:16:58.838Z,68.80
2017-10-02T09:19:27.115Z,69.10
2017-10-02T09:21:56.251Z,68.50
2017-10-02T09:24:24.667Z,68.90
2017-10-02T09:26:53.135Z,68.60
2017-10-02T09:29:21.715Z,68.80
2017-10-02T09:31:50.121Z,68.50
2017-10-02T09:34:19.367Z,68.50
2017-10-02T09:36:48.437Z,68.20
2017-10-02T09:39:16.768Z,68.30
2017-10-02T09:41:45.220Z,68.30
2017-10-02T09:44:13.776Z,68.40
2017-10-02T09:46:43.679Z,68.40
2017-10-02T09:49:11.943Z,68.50
2017-10-02T09:51:40.345Z,68.60
2017-10-02T09:54:08.577Z,68.60
2017-10-02T09:56:36.852Z,68.60
2017-10-02T09:59:05.980Z,68.20
2017-10-02T10:01:34.271Z,68.30
2017-10-02T10:04:03.365Z,68.60
2017-10-02T10:06:31.614Z,68.30
2017-10-02T10:08:59.897Z,68.50
2017-10-02T10:11:28.198Z,68.30
2017-10-02T10:13:56.459Z,68.20
2017-10-02T10:16:24.869Z,68.10
2017-10-02T10:18:54.152Z,67.70
2017-10-02T10:21:23.286Z,67.10
2017-10-02T10:23:51.565Z,67.00
2017-10-02T10:26:21.922Z,66.70
2017-10-02T10:28:51.990Z,66.70
2017-10-02T10:31:21.068Z,66.60
2017-10-02T10:33:50.156Z,66.40
2017-10-02T10:36:19.356Z,66.30
2017-10-02T10:38:48.460Z,65.90
2017-10-02T10:41:16.783Z,65.80
2017-10-02T10:43:46.883Z,65.20
2017-10-02T10:46:17.829Z,65.10
2017-10-02T10:48:48.070Z,65.10
2017-10-02T10:51:17.256Z,64.60
2017-10-02T10:53:46.463Z,64.20
2017-10-02T10:56:14.790Z,64.10
2017-10-02T10:58:43.071Z,64.60
2017-10-02T11:01:13.110Z,64.30
2017-10-02T11:03:42.104Z,64.50
2017-10-02T11:06:11.217Z,64.60
2017-10-02T11:08:39.593Z,64.70
2017-10-02T11:11:08.024Z,64.60
2017-10-02T11:13:37.210Z,64.60
2017-10-02T11:16:05.531Z,63.90
2017-10-02T11:18:33.980Z,63.80
2017-10-02T11:21:03.153Z,63.10
2017-10-02T11:23:31.447Z,62.90
2017-10-02T11:25:59.936Z,62.90
2017-10-02T11:28:30.308Z,62.30
2017-10-02T11:30:58.729Z,61.80
2017-10-02T11:33:27.884Z,61.40
2017-10-02T11:35:57.156Z,61.60
2017-10-02T11:38:26.200Z,60.70
2017-10-02T11:40:54.508Z,60.80
2017-10-02T11:43:23.694Z,60.80
2017-10-02T11:45:53.027Z,60.60
2017-10-02T11:48:22.172Z,60.60
2017-10-02T11:50:50.607Z,60.60
2017-10-02T11:53:19.709Z,60.10
2017-10-02T11:55:49.217Z,59.90
2017-10-02T11:58:18.443Z,60.10
2017-10-02T12:00:47.043Z,59.90
2017-10-02T12:03:15.351Z,59.80
2017-10-02T12:05:43.679Z,59.70
2017-10-02T12:08:13.279Z,59.20
2017-10-02T12:10:41.831Z,59.30
2017-10-02T12:13:10.230Z,58.90
2017-10-02T12:15:39.321Z,58.40
2017-10-02T12:18:09.212Z,57.90
2017-10-02T12:20:38.261Z,58.30
2017-10-02T12:23:06.571Z,58.40
2017-10-02T12:25:34.849Z,57.90
2017-10-02T12:28:03.128Z,57.80
2017-10-02T12:30:31.404Z,57.80
2017-10-02T12:33:00.461Z,57.90
2017-10-02T12:35:28.767Z,57.40
2017-10-02T12:37:57.092Z,56.30
2017-10-02T12:40:25.347Z,56.00
2017-10-02T12:42:54.430Z,56.40
2017-10-02T12:45:23.518Z,56.30
2017-10-02T12:47:51.977Z,56.20
2017-10-02T12:50:20.408Z,55.70
2017-10-02T12:52:50.443Z,55.40
2017-10-02T12:55:18.834Z,55.30
2017-10-02T12:57:47.115Z,54.80
2017-10-02T13:00:15.448Z,54.50
2017-10-02T13:02:43.805Z,55.10
2017-10-02T13:05:12.885Z,54.70
2017-10-02T13:07:44.084Z,54.90
2017-10-02T13:10:12.401Z,55.20
2017-10-02T13:12:41.723Z,54.80
2017-10-02T13:15:10.014Z,54.90
2017-10-02T13:17:39.931Z,55.50
2017-10-02T13:20:09.060Z,54.90
2017-10-02T13:22:37.368Z,55.00
2017-10-02T13:25:06.165Z,54.80
2017-10-02T13:27:34.507Z,54.50
2017-10-02T13:30:02.872Z,54.00
2017-10-02T13:32:31.252Z,54.20
2017-10-02T13:34:59.558Z,54.20
2017-10-02T13:37:27.842Z,54.40
2017-10-02T13:39:56.409Z,53.80
2017-10-02T13:42:24.744Z,53.60
2017-10-02T13:44:53.792Z,53.30
2017-10-02T13:47:22.061Z,53.30
2017-10-02T13:49:50.454Z,53.10
2017-10-02T13:52:18.715Z,53.20
2017-10-02T13:54:51.442Z,52.90
2017-10-02T13:57:20.946Z,52.90
2017-10-02T13:59:49.337Z,52.70
2017-10-02T14:02:22.470Z,52.10
2017-10-02T14:04:50.808Z,51.80
2017-10-02T14:07:19.870Z,51.60
2017-10-02T14:09:48.145Z,51.90
2017-10-02T14:12:18.212Z,52.10
2017-10-02T14:14:46.505Z,52.10
2017-10-02T14:17:14.811Z,51.80
2017-10-02T14:19:43.083Z,51.60
2017-10-02T14:22:11.358Z,51.60
2017-10-02T14:24:39.637Z,51.40
2017-10-02T14:27:09.444Z,50.80
2017-10-02T14:29:37.722Z,50.80
2017-10-02T14:32:06.963Z,51.20
2017-10-02T14:34:36.034Z,50.10
2017-10-02T14:37:04.398Z,49.90
2017-10-02T14:39:32.796Z,49.90
2017-10-02T14:42:01.839Z,49.90
2017-10-02T14:44:30.114Z,49.30
2017-10-02T14:46:58.445Z,49.00
2017-10-02T14:49:26.747Z,48.60
2017-10-02T14:51:55.927Z,48.20
2017-10-02T14:54:24.374Z,48.10
2017-10-02T14:56:52.781Z,48.60
2017-10-02T14:59:21.063Z,48.40
2017-10-02T15:01:49.409Z,48.70
2017-10-02T15:04:17.673Z,48.10
2017-10-02T15:06:45.998Z,48.00
2017-10-02T15:09:14.674Z,48.30
2017-10-02T15:11:44.462Z,48.80
2017-10-02T15:14:13.369Z,48.80
2017-10-02T15:16:41.690Z,49.20
2017-10-02T15:19:10.670Z,48.90
2017-10-02T15:21:38.997Z,49.20
2017-10-02T15:24:07.285Z,49.40
2017-10-02T15:26:35.570Z,49.30
2017-10-02T15:29:03.891Z,49.20
2017-10-02T15:34:32.287Z,48.60
2017-10-02T15:37:00.606Z,48.60
2017-10-02T15:39:29.711Z,49.00
2017-10-02T15:41:58.110Z,49.10
2017-10-02T15:44:27.245Z,48.90
2017-10-02T15:46:56.419Z,48.80
2017-10-02T15:49:24.909Z,48.40
2017-10-02T15:51:53.399Z,48.40
2017-10-02T15:54:21.833Z,48.50
2017-10-02T15:56:51.066Z,48.20
2017-10-02T15:59:19.678Z,48.30
2017-10-02T16:01:48.192Z,48.10
2017-10-02T16:04:17.653Z,48.30
2017-10-02T16:06:46.338Z,48.80
2017-10-02T16:09:15.925Z,49.00
2017-10-02T16:11:45.065Z,48.90
2017-10-02T16:14:14.571Z,49.20
2017-10-02T16:16:44.205Z,49.10
2017-10-02T16:19:12.976Z,48.90
2017-10-02T16:21:41.713Z,49.20
2017-10-02T16:24:11.245Z,49.20
2017-10-02T16:26:39.669Z,48.50
2017-10-02T16:29:08.418Z,49.00
2017-10-02T16:31:38.046Z,48.90
2017-10-02T16:34:07.455Z,48.90
2017-10-02T16:36:36.088Z,48.60
2017-10-02T16:39:05.494Z,49.00
2017-10-02T16:41:33.762Z,49.10
2017-10-02T16:44:02.892Z,49.20
2017-10-02T16:46:32.175Z,49.40
2017-10-02T16:49:02.016Z,48.90
2017-10-02T16:51:31.193Z,48.80
2017-10-02T16:54:00.303Z,49.10
2017-10-02T16:56:28.700Z,49.00
2017-10-02T16:58:57.947Z,49.10
2017-10-02T17:01:27.233Z,48.80
2017-10-02T17:03:56.365Z,49.00
2017-10-02T17:06:24.770Z,48.90
2017-10-02T17:08:53.074Z,49.00
2017-10-02T17:11:21.374Z,48.90
2017-10-02T17:13:51.454Z,49.50
2017-10-02T17:16:19.804Z,49.50
2017-10-02T17:18:49.802Z,49.30
2017-10-02T17:21:18.123Z,49.40
2017-10-02T17:23:47.253Z,49.00
2017-10-02T17:26:18.944Z,49.20
2017-10-02T17:28:47.393Z,49.30
2017-10-02T17:31:16.453Z,49.30
2017-10-02T17:33:44.897Z,49.40
2017-10-02T17:36:13.258Z,49.40
2017-10-02T17:38:41.657Z,49.60
2017-10-02T17:41:09.948Z,50.00
2017-10-02T17:43:38.363Z,49.80
2017-10-02T17:46:07.492Z,49.80
2017-10-02T17:48:35.912Z,49.70
2017-10-02T17:51:04.241Z,50.10
2017-10-02T17:53:33.425Z,50.00
2017-10-02T17:56:02.839Z,49.70
2017-10-02T17:58:31.202Z,49.60
2017-10-02T18:01:00.340Z,49.60
2017-10-02T18:03:29.641Z,49.60
2017-10-02T18:05:58.977Z,49.90
2017-10-02T18:08:28.303Z,49.70
2017-10-02T18:10:56.691Z,49.80
2017-10-02T18:13:26.835Z,49.80
2017-10-02T18:15:55.241Z,49.80
2017-10-02T18:18:24.996Z,49.60
2017-10-02T18:20:53.497Z,49.50
2017-10-02T18:23:22.518Z,49.40
2017-10-02T18:25:51.310Z,49.30
2017-10-02T18:28:19.747Z,49.80
2017-10-02T18:30:48.038Z,49.70
2017-10-02T18:33:16.591Z,49.90
2017-10-02T18:35:45.149Z,50.00
2017-10-02T18:38:14.530Z,49.90
2017-10-02T18:40:43.081Z,50.00
2017-10-02T18:43:11.503Z,50.00
2017-10-02T18:45:40.107Z,50.20
2017-10-02T18:48:09.265Z,50.80
2017-10-02T18:50:37.896Z,50.70
2017-10-02T18:53:07.113Z,50.70
2017-10-02T18:55:36.452Z,51.00
2017-10-02T18:58:04.845Z,51.00
2017-10-02T19:00:33.598Z,51.10
2017-10-02T19:03:02.981Z,50.90
2017-10-02T19:05:31.599Z,51.00
2017-10-02T19:08:01.117Z,50.90
2017-10-02T19:10:31.272Z,51.40
2017-10-02T19:13:00.679Z,51.30
2017-10-02T19:15:29.632Z,51.90
2017-10-02T19:17:58.983Z,51.40
2017-10-02T19:20:31.085Z,51.80
2017-10-02T19:23:02.195Z,51.30
2017-10-02T19:25:31.903Z,51.70
2017-10-02T19:28:02.290Z,52.00
2017-10-02T19:30:30.964Z,51.90
2017-10-02T19:32:59.692Z,52.20
2017-10-02T19:35:28.056Z,51.70
2017-10-02T19:37:56.365Z,51.90
2017-10-02T19:40:25.436Z,52.90
2017-10-02T19:42:53.943Z,52.30
2017-10-02T19:45:24.325Z,52.70
2017-10-02T19:47:52.957Z,52.40
2017-10-02T19:50:22.352Z,52.60
2017-10-02T19:52:52.884Z,52.50
2017-10-02T19:55:23.916Z,52.90
2017-10-02T19:57:53.026Z,52.90
2017-10-02T20:00:21.345Z,52.90
2017-10-02T20:02:50.897Z,53.30
2017-10-02T20:05:19.327Z,53.40
2017-10-02T20:07:47.812Z,53.20
2017-10-02T20:10:16.193Z,53.50
2017-10-02T20:12:48.115Z,54.20
2017-10-02T20:15:17.653Z,54.10
2017-10-02T20:17:45.972Z,54.00
2017-10-02T20:20:16.775Z,54.00
2017-10-02T20:22:45.798Z,53.70
2017-10-02T20:25:15.190Z,53.50
2017-10-02T20:27:43.661Z,53.40
2017-10-02T20:30:12.154Z,53.20
2017-10-02T20:32:40.654Z,53.40
2017-10-02T20:35:10.954Z,53.40
2017-10-02T20:37:40.170Z,53.00
2017-10-02T20:40:09.944Z,52.80
2017-10-02T20:42:39.098Z,52.80
2017-10-02T20:45:08.161Z,52.30
2017-10-02T20:47:38.280Z,52.40
2017-10-02T20:50:06.929Z,52.10
2017-10-02T20:52:36.034Z,51.90
2017-10-02T20:55:04.378Z,51.90
2017-10-02T20:57:32.722Z,51.90
2017-10-02T21:00:01.107Z,51.90
2017-10-02T21:02:30.392Z,52.30
2017-10-02T21:04:59.494Z,52.40
2017-10-02T21:07:28.747Z,52.40
2017-10-02T21:09:57.091Z,52.60
2017-10-02T21:12:26.344Z,53.70
2017-10-02T21:14:54.631Z,53.80
2017-10-02T21:17:22.940Z,54.50
2017-10-02T21:19:52.232Z,54.60
2017-10-02T21:22:20.536Z,54.50
2017-10-02T21:24:49.778Z,54.50
2017-10-02T21:27:18.262Z,54.30
2017-10-02T21:29:46.582Z,55.30
2017-10-02T21:32:15.772Z,55.50
2017-10-02T21:34:45.787Z,56.00
2017-10-02T21:37:14.109Z,55.70
2017-10-02T21:39:42.393Z,56.00
2017-10-02T21:42:10.883Z,56.20
2017-10-02T21:44:39.267Z,56.40
2017-10-02T21:47:07.548Z,56.80
2017-10-02T21:49:35.903Z,56.70
2017-10-02T21:52:04.175Z,57.40
2017-10-02T21:54:32.479Z,57.60
2017-10-02T21:57:01.343Z,58.00
2017-10-02T21:59:31.703Z,57.90
2017-10-02T22:02:00.921Z,58.20
2017-10-02T22:04:30.073Z,58.40
2017-10-02T22:06:59.315Z,58.40
2017-10-02T22:09:28.410Z,58.60
2017-10-02T22:11:58.235Z,58.90
2017-10-02T22:14:26.544Z,59.10
2017-10-02T22:16:54.832Z,59.10
2017-10-02T22:19:23.225Z,58.90
2017-10-02T22:21:51.873Z,58.90
2017-10-02T22:24:20.946Z,58.90
2017-10-02T22:26:49.287Z,58.90
2017-10-02T22:29:17.554Z,58.90
2017-10-02T22:31:45.843Z,59.00
2017-10-02T22:34:14.121Z,59.00
2017-10-02T22:36:42.435Z,59.10
2017-10-02T22:39:10.690Z,58.90
2017-10-02T22:41:39.791Z,59.20
2017-10-02T22:44:10.126Z,59.10
2017-10-02T22:46:39.493Z,59.10
2017-10-02T22:49:07.955Z,59.40
2017-10-02T22:51:37.385Z,59.70
2017-10-02T22:54:06.601Z,59.70
2017-10-02T22:56:35.672Z,60.00
2017-10-02T22:59:03.986Z,59.80
2017-10-02T23:01:33.074Z,60.10
2017-10-02T23:04:06.935Z,60.20
2017-10-02T23:06:35.364Z,60.90
2017-10-02T23:09:03.732Z,60.20
2017-10-02T23:11:31.958Z,60.50
2017-10-02T23:14:00.304Z,60.10
2017-10-02T23:16:30.327Z,60.30
2017-10-02T23:18:58.636Z,60.60
2017-10-02T23:21:26.928Z,60.70
2017-10-02T23:23:55.209Z,60.40
2017-10-02T23:26:23.586Z,60.40
2017-10-02T23:28:51.949Z,61.10
2017-10-02T23:31:21.251Z,60.90
2017-10-02T23:33:49.578Z,60.90
2017-10-02T23:36:18.071Z,61.10
2017-10-02T23:38:46.346Z,61.00
2017-10-02T23:41:14.656Z,61.30
2017-10-02T23:43:43.059Z,61.30
2017-10-02T23:46:11.340Z,61.10
2017-10-02T23:48:40.540Z,60.80
2017-10-02T23:51:08.888Z,61.10
2017-10-02T23:53:38.111Z,60.80
2017-10-02T23:56:06.427Z,60.50
2017-10-02T23:58:35.476Z,60.60
